Time;durP1;ratioP1;P1;durP2;ratioP2;P2;SDS_P1;SDS_P2;PMS_P1;PMS_P2;Temp;Humidity;BMP_temperature;BMP_pressure;BME280_temperature;BME280_humidity;BME280_pressure;Samples;Min_cycle;Max_cycle;Signal;HPM_P1;HPM_P2
2022/06/30 00:00:42;;;;;;;0.25;0.25;;;23.00;99.90;;;;;;4991384;28;20402;-64
2022/06/30 00:03:08;;;;;;;0.40;0.40;;;22.90;99.90;;;;;;4990965;28;20041;-64
2022/06/30 00:05:34;;;;;;;7.03;0.38;;;22.90;99.90;;;;;;4991367;28;20081;-65
2022/06/30 00:08:00;;;;;;;0.30;0.30;;;22.90;99.90;;;;;;4989828;28;20034;-64
2022/06/30 00:10:29;;;;;;;3.30;2.05;;;22.80;99.90;;;;;;4989921;28;20061;-64
2022/06/30 00:12:55;;;;;;;0.95;0.70;;;22.80;99.90;;;;;;4973472;28;20061;-64
2022/06/30 00:15:20;;;;;;;0.52;0.35;;;22.70;99.90;;;;;;4993974;28;20466;-64
2022/06/30 00:17:47;;;;;;;0.20;0.20;;;22.70;99.90;;;;;;4993227;28;20371;-65
2022/06/30 00:20:13;;;;;;;0.63;0.43;;;22.70;99.90;;;;;;4994825;28;20173;-64
2022/06/30 00:22:39;;;;;;;0.73;0.47;;;22.60;99.90;;;;;;4993382;28;20109;-64
2022/06/30 00:25:05;;;;;;;2.75;1.30;;;22.60;99.90;;;;;;4993620;28;20121;-64
2022/06/30 00:27:31;;;;;;;0.65;0.40;;;22.50;99.90;;;;;;4993525;28;20041;-64
2022/06/30 00:29:57;;;;;;;0.20;0.20;;;22.60;99.90;;;;;;4994617;28;20034;-64
2022/06/30 00:32:23;;;;;;;0.10;0.10;;;22.70;99.90;;;;;;4994132;28;20041;-65
2022/06/30 00:34:48;;;;;;;0.00;0.00;;;22.70;99.90;;;;;;4993214;28;20042;-64
2022/06/30 00:37:14;;;;;;;0.25;0.25;;;22.70;99.90;;;;;;4994513;28;20113;-64
2022/06/30 00:39:40;;;;;;;0.30;0.30;;;22.70;99.90;;;;;;4993369;28;20177;-64
2022/06/30 00:42:07;;;;;;;0.35;0.35;;;22.70;99.90;;;;;;4994561;28;20092;-65
2022/06/30 00:44:33;;;;;;;0.73;0.60;;;22.60;99.90;;;;;;4993180;28;20085;-64
2022/06/30 00:46:59;;;;;;;0.40;0.40;;;22.60;99.90;;;;;;4992914;28;20030;-64
2022/06/30 00:49:24;;;;;;;5.03;1.13;;;22.60;99.90;;;;;;4993088;28;20034;-64
2022/06/30 00:51:53;;;;;;;1.65;0.55;;;22.50;99.90;;;;;;4994460;28;20096;-64
2022/06/30 00:54:23;;;;;;;0.30;0.28;;;22.30;99.90;;;;;;4993856;28;20037;-64
2022/06/30 00:56:50;;;;;;;0.32;0.28;;;22.10;99.90;;;;;;4994024;28;20382;-65
2022/06/30 00:59:17;;;;;;;0.00;0.00;;;22.00;99.90;;;;;;4992549;28;20038;-64
2022/06/30 01:01:44;;;;;;;0.20;0.20;;;21.90;99.90;;;;;;4993980;28;20022;-64
2022/06/30 01:04:14;;;;;;;0.47;0.47;;;21.90;99.90;;;;;;4992397;28;20041;-64
2022/06/30 01:06:44;;;;;;;0.70;0.68;;;21.90;99.90;;;;;;4976724;28;20062;-64
2022/06/30 01:09:12;;;;;;;0.40;0.40;;;21.80;99.90;;;;;;4993798;28;20044;-64
2022/06/30 01:14:22;;;;;;;1.00;0.80;;;21.60;99.90;;;;;;4993955;28;20038;-64
2022/06/30 01:16:48;;;;;;;0.28;0.28;;;21.70;99.90;;;;;;4992511;28;20033;-64
2022/06/30 01:19:15;;;;;;;7.97;2.10;;;21.60;99.90;;;;;;4993750;28;20054;-64
2022/06/30 01:21:59;;;;;;;1.23;0.63;;;21.70;99.90;;;;;;4992459;28;20022;-64
2022/06/30 01:24:25;;;;;;;0.70;0.70;;;21.70;99.90;;;;;;4993131;28;20441;-64
2022/06/30 01:26:58;;;;;;;0.17;0.17;;;21.70;99.90;;;;;;4993426;28;20031;-64
2022/06/30 01:29:24;;;;;;;0.15;0.15;;;21.70;99.90;;;;;;4993378;28;20097;-64
2022/06/30 01:31:50;;;;;;;0.10;0.10;;;21.80;99.90;;;;;;4992412;28;20478;-64
2022/06/30 01:34:16;;;;;;;3.47;1.77;;;21.80;99.90;;;;;;4993252;28;20081;-64
2022/06/30 01:36:42;;;;;;;0.17;0.17;;;21.80;99.90;;;;;;4993377;28;20032;-64
2022/06/30 01:39:08;;;;;;;0.03;0.03;;;21.90;99.90;;;;;;4993567;28;20026;-64
2022/06/30 01:41:33;;;;;;;3.20;1.25;;;21.90;99.90;;;;;;4993296;28;20073;-65
2022/06/30 01:43:59;;;;;;;0.13;0.13;;;21.90;99.90;;;;;;4993028;28;20058;-64
2022/06/30 01:46:25;;;;;;;0.32;0.32;;;21.90;99.90;;;;;;4993455;28;20076;-64
2022/06/30 01:48:51;;;;;;;0.80;0.77;;;21.80;99.90;;;;;;4992149;28;20485;-64
2022/06/30 01:51:16;;;;;;;0.38;0.30;;;21.90;99.90;;;;;;4992884;28;20034;-64
2022/06/30 01:53:42;;;;;;;0.75;0.70;;;21.80;99.90;;;;;;4992449;28;20132;-64
2022/06/30 01:56:08;;;;;;;0.22;0.20;;;21.80;99.90;;;;;;4993090;28;20043;-64
2022/06/30 01:58:33;;;;;;;0.15;0.15;;;21.70;99.90;;;;;;4992875;28;20027;-65
2022/06/30 02:01:02;;;;;;;0.08;0.08;;;21.60;99.90;;;;;;4992920;28;20496;-64
2022/06/30 02:03:28;;;;;;;0.10;0.10;;;21.60;99.90;;;;;;4992408;28;20115;-64
2022/06/30 02:05:53;;;;;;;2.83;1.65;;;21.40;99.90;;;;;;4991415;28;20685;-64
2022/06/30 02:08:19;;;;;;;0.73;0.50;;;21.30;99.90;;;;;;4993121;28;20390;-64
2022/06/30 02:10:45;;;;;;;1.23;0.47;;;21.20;99.90;;;;;;4992894;28;20038;-64
2022/06/30 02:13:11;;;;;;;1.00;0.50;;;21.10;99.90;;;;;;4991150;28;20026;-64
2022/06/30 02:15:36;;;;;;;0.25;0.25;;;21.10;99.90;;;;;;4992549;28;20144;-65
2022/06/30 02:18:06;;;;;;;1.20;1.10;;;21.10;99.90;;;;;;4991606;28;20092;-64
2022/06/30 02:20:32;;;;;;;1.15;0.52;;;21.20;99.90;;;;;;4992766;28;20030;-64
2022/06/30 02:23:00;;;;;;;0.77;0.77;;;21.20;99.90;;;;;;4975149;28;20106;-64
2022/06/30 02:25:28;;;;;;;4.75;1.08;;;21.20;99.90;;;;;;4992353;28;20031;-64
2022/06/30 02:27:54;;;;;;;0.43;0.43;;;21.20;99.90;;;;;;4991313;28;20034;-64
2022/06/30 02:30:21;;;;;;;2.75;1.05;;;21.30;99.90;;;;;;4991040;28;20048;-64
2022/06/30 02:32:47;;;;;;;0.17;0.10;;;21.20;99.90;;;;;;4991144;28;20030;-64
2022/06/30 02:35:14;;;;;;;0.73;0.63;;;21.30;99.90;;;;;;4992223;28;20045;-64
2022/06/30 02:37:40;;;;;;;5.05;1.42;;;21.30;99.90;;;;;;4991511;28;20402;-64
2022/06/30 02:40:07;;;;;;;0.50;0.47;;;21.10;99.90;;;;;;4991341;28;20041;-63
2022/06/30 02:42:34;;;;;;;0.28;0.28;;;21.10;99.90;;;;;;4990551;28;20027;-63
2022/06/30 02:44:59;;;;;;;0.03;0.03;;;21.00;99.90;;;;;;4992257;28;20034;-64
2022/06/30 02:47:30;;;;;;;2.65;1.85;;;20.90;99.90;;;;;;4992146;28;20720;-65
2022/06/30 02:49:56;;;;;;;0.30;0.30;;;20.90;99.90;;;;;;4990835;28;20622;-64
2022/06/30 02:52:22;;;;;;;1.98;1.27;;;20.80;99.90;;;;;;4991842;28;20069;-64
2022/06/30 02:54:48;;;;;;;1.08;0.63;;;20.70;99.90;;;;;;4992027;28;20474;-64
2022/06/30 02:57:13;;;;;;;0.10;0.10;;;20.70;99.90;;;;;;4990832;28;20217;-70
2022/06/30 02:59:39;;;;;;;0.52;0.52;;;20.70;99.90;;;;;;4990451;28;20030;-70
2022/06/30 03:02:05;;;;;;;0.28;0.28;;;20.70;99.90;;;;;;4990532;28;20045;-70
2022/06/30 03:04:30;;;;;;;0.90;0.40;;;20.70;99.90;;;;;;4983945;28;20426;-70
2022/06/30 03:06:56;;;;;;;1.25;0.85;;;20.60;99.90;;;;;;4986203;28;20121;-70
2022/06/30 03:09:23;;;;;;;0.45;0.40;;;20.70;99.90;;;;;;4991603;28;20045;-70
2022/06/30 03:11:49;;;;;;;0.55;0.35;;;20.70;99.90;;;;;;4990630;28;20100;-70
2022/06/30 03:14:15;;;;;;;0.43;0.43;;;20.60;99.90;;;;;;4990174;28;20537;-70
2022/06/30 03:16:40;;;;;;;3.30;0.52;;;20.60;99.90;;;;;;4991606;28;20049;-70
2022/06/30 03:19:06;;;;;;;0.30;0.30;;;20.60;99.90;;;;;;4990598;28;20033;-70
2022/06/30 03:21:32;;;;;;;0.28;0.28;;;20.60;99.90;;;;;;4991497;28;20118;-70
2022/06/30 03:23:58;;;;;;;0.32;0.32;;;20.60;99.90;;;;;;4991438;28;20391;-70
2022/06/30 03:26:23;;;;;;;1.42;0.98;;;20.60;99.90;;;;;;4991790;28;20023;-70
2022/06/30 03:28:49;;;;;;;0.17;0.10;;;20.60;99.90;;;;;;4990493;28;20108;-70
2022/06/30 03:31:15;;;;;;;18.02;4.07;;;20.50;99.90;;;;;;4990311;28;20081;-70
2022/06/30 03:33:41;;;;;;;1.25;1.08;;;20.60;99.90;;;;;;4989963;28;20393;-70
2022/06/30 03:36:10;;;;;;;0.57;0.35;;;20.60;99.90;;;;;;4991700;28;20030;-71
2022/06/30 03:38:36;;;;;;;1.95;0.45;;;20.70;99.90;;;;;;4991450;28;20026;-70
2022/06/30 03:41:01;;;;;;;0.28;0.28;;;20.60;99.90;;;;;;4991603;28;20529;-70
2022/06/30 03:43:27;;;;;;;0.08;0.08;;;20.60;99.90;;;;;;4991101;28;20133;-71
2022/06/30 03:45:53;;;;;;;5.22;0.85;;;20.60;99.90;;;;;;4991480;28;20026;-71
2022/06/30 03:48:18;;;;;;;1.08;0.98;;;20.60;99.90;;;;;;4992887;28;20096;-70
2022/06/30 03:50:44;;;;;;;0.65;0.65;;;20.50;99.90;;;;;;5016467;22;20077;-68
2022/06/30 03:53:10;;;;;;;2.10;0.55;;;20.50;99.90;;;;;;5022935;28;20084;-67
2022/06/30 03:55:39;;;;;;;0.47;0.47;;;20.60;99.90;;;;;;5014559;28;20056;-68
2022/06/30 03:58:08;;;;;;;1.13;0.82;;;20.50;99.90;;;;;;5013226;28;20033;-67
2022/06/30 04:00:35;;;;;;;0.17;0.17;;;20.50;99.90;;;;;;5013155;28;20542;-67
2022/06/30 04:03:03;;;;;;;1.23;0.43;;;20.60;99.90;;;;;;5013257;28;20057;-67
2022/06/30 04:05:29;;;;;;;0.20;0.20;;;20.50;99.90;;;;;;5014630;28;20528;-67
2022/06/30 04:07:55;;;;;;;0.65;0.63;;;20.50;99.90;;;;;;5014206;28;20180;-67
2022/06/30 04:10:21;;;;;;;0.10;0.10;;;20.60;99.90;;;;;;5006141;28;20070;-67
2022/06/30 04:12:46;;;;;;;1.13;0.80;;;20.60;99.90;;;;;;5033187;28;20021;-67
2022/06/30 04:15:12;;;;;;;0.43;0.43;;;20.60;99.90;;;;;;5033939;28;20041;-67
2022/06/30 04:17:38;;;;;;;0.38;0.30;;;20.70;99.90;;;;;;5033753;28;20029;-67
2022/06/30 04:20:15;;;;;;;0.50;0.50;;;20.70;99.90;;;;;;5015784;28;20466;-67
2022/06/30 04:22:43;;;;;;;0.00;0.00;;;20.70;99.90;;;;;;5033451;28;20405;-68
2022/06/30 04:25:10;;;;;;;3.60;1.08;;;20.70;99.90;;;;;;5032500;28;20615;-67
2022/06/30 04:27:36;;;;;;;0.52;0.30;;;20.80;99.90;;;;;;5033840;28;20072;-67
2022/06/30 04:30:02;;;;;;;0.20;0.20;;;20.70;99.90;;;;;;5025373;28;20037;-67
2022/06/30 04:32:40;;;;;;;0.32;0.28;;;20.70;99.90;;;;;;5013633;28;20026;-69
2022/06/30 04:35:11;;;;;;;17.95;0.75;;;20.80;99.90;;;;;;5019514;28;20091;-69
2022/06/30 04:37:39;;;;;;;0.28;0.20;;;20.90;99.90;;;;;;5033374;28;20485;-69
2022/06/30 04:42:50;;;;;;;0.55;0.55;;;20.70;99.90;;;;;;5033080;28;20033;-69
2022/06/30 04:45:19;;;;;;;0.47;0.45;;;20.60;99.90;;;;;;5032055;28;20028;-67
2022/06/30 04:47:45;;;;;;;0.00;0.00;;;20.50;99.90;;;;;;5032886;28;20662;-69
2022/06/30 04:50:11;;;;;;;0.40;0.40;;;20.50;99.90;;;;;;5033076;28;20025;-69
2022/06/30 04:52:37;;;;;;;0.28;0.28;;;20.50;99.90;;;;;;5032284;28;20038;-68
2022/06/30 04:55:03;;;;;;;0.17;0.13;;;20.60;99.90;;;;;;5031580;28;20037;-70
2022/06/30 04:57:28;;;;;;;0.35;0.28;;;20.60;99.90;;;;;;5015066;28;20037;-70
2022/06/30 04:59:54;;;;;;;0.40;0.38;;;20.60;99.90;;;;;;5032404;28;20029;-71
2022/06/30 05:02:20;;;;;;;1.15;1.05;;;20.70;99.90;;;;;;5032484;28;20037;-71
2022/06/30 05:04:46;;;;;;;0.35;0.35;;;20.80;99.90;;;;;;5032858;28;20032;-71
2022/06/30 05:07:11;;;;;;;0.17;0.17;;;20.80;99.90;;;;;;5032866;28;20034;-71
2022/06/30 05:09:37;;;;;;;0.10;0.10;;;20.80;99.90;;;;;;5032513;28;20037;-69
2022/06/30 05:12:04;;;;;;;0.93;0.75;;;20.90;99.90;;;;;;5031393;28;20477;-70
2022/06/30 05:14:30;;;;;;;1.98;1.17;;;20.90;99.90;;;;;;5032030;28;20676;-70
2022/06/30 05:16:56;;;;;;;2.88;1.63;;;21.00;99.90;;;;;;5032473;28;20665;-71
2022/06/30 05:19:21;;;;;;;0.85;0.77;;;21.00;99.90;;;;;;5031336;28;20033;-71
2022/06/30 05:21:47;;;;;;;1.10;1.00;;;21.00;99.90;;;;;;5032523;28;20025;-70
2022/06/30 05:26:57;;;;;;;2.10;0.98;;;21.10;99.90;;;;;;5032411;28;20029;-70
2022/06/30 05:29:23;;;;;;;0.45;0.45;;;21.20;99.90;;;;;;5032483;28;20113;-71
2022/06/30 05:31:48;;;;;;;9.90;1.02;;;21.20;99.90;;;;;;5032219;28;20041;-71
2022/06/30 05:34:14;;;;;;;1.00;0.70;;;21.20;99.90;;;;;;5032132;28;20039;-70
2022/06/30 05:36:40;;;;;;;0.52;0.43;;;21.30;99.90;;;;;;5032074;28;20036;-72
2022/06/30 05:39:06;;;;;;;0.57;0.57;;;21.30;99.90;;;;;;5032262;28;20074;-69
2022/06/30 05:41:31;;;;;;;1.25;0.45;;;21.30;99.90;;;;;;5031821;28;20477;-71
2022/06/30 05:43:57;;;;;;;0.55;0.50;;;21.40;99.90;;;;;;5031330;28;20037;-68
2022/06/30 05:46:23;;;;;;;2.55;1.77;;;21.30;99.90;;;;;;5031734;28;20029;-68
2022/06/30 05:48:49;;;;;;;0.40;0.20;;;21.40;99.90;;;;;;5032247;28;20033;-70
2022/06/30 05:51:14;;;;;;;34.80;1.27;;;21.50;99.90;;;;;;5030688;28;20044;-70
2022/06/30 05:53:40;;;;;;;0.63;0.63;;;21.50;99.90;;;;;;5031647;28;20033;-69
2022/06/30 05:56:06;;;;;;;0.40;0.40;;;21.60;99.90;;;;;;5029955;28;20033;-68
2022/06/30 05:58:32;;;;;;;0.57;0.57;;;21.60;99.90;;;;;;5031980;28;20637;-69
2022/06/30 06:00:57;;;;;;;3.33;0.77;;;21.70;99.90;;;;;;5030483;28;20034;-69
2022/06/30 06:03:23;;;;;;;0.50;0.50;;;21.80;99.90;;;;;;5030791;28;20132;-69
2022/06/30 06:05:49;;;;;;;2.00;0.85;;;21.90;99.90;;;;;;5031454;28;20132;-69
2022/06/30 06:08:14;;;;;;;1.38;1.10;;;21.90;99.90;;;;;;5015078;28;20041;-68
2022/06/30 06:10:41;;;;;;;0.45;0.38;;;22.00;99.90;;;;;;5028596;28;20087;-69
2022/06/30 06:13:09;;;;;;;0.38;0.38;;;22.00;99.90;;;;;;5031605;28;20084;-69
2022/06/30 06:15:35;;;;;;;1.48;1.38;;;22.00;99.90;;;;;;5031582;28;20493;-69
2022/06/30 06:18:01;;;;;;;1.17;1.10;;;22.10;99.90;;;;;;5030244;28;20030;-71
2022/06/30 06:20:27;;;;;;;0.30;0.30;;;22.10;99.90;;;;;;5031155;28;20120;-73
2022/06/30 06:22:53;;;;;;;0.20;0.20;;;22.20;99.90;;;;;;5030824;28;20110;-74
2022/06/30 06:25:19;;;;;;;0.20;0.20;;;22.30;99.90;;;;;;5031283;28;20477;-72
2022/06/30 06:29:05;;;;;;;1.25;1.08;;;22.40;99.90;;;;;;5031691;28;20133;-72
2022/06/30 06:30:34;;;;;;;0.45;0.45;;;22.50;99.90;;;;;;5031140;28;20112;-72
2022/06/30 06:33:00;;;;;;;0.25;0.25;;;22.60;99.90;;;;;;5031264;28;20489;-72
2022/06/30 06:35:26;;;;;;;1.17;0.45;;;22.70;99.90;;;;;;5031627;28;20095;-72
2022/06/30 06:37:52;;;;;;;0.60;0.60;;;22.70;99.90;;;;;;5031430;28;20441;-72
2022/06/30 06:40:18;;;;;;;0.32;0.32;;;22.80;99.90;;;;;;5016515;28;20053;-72
2022/06/30 06:42:43;;;;;;;0.60;0.52;;;22.90;99.90;;;;;;5021022;28;20473;-72
2022/06/30 06:45:09;;;;;;;0.08;0.08;;;22.90;99.90;;;;;;5031092;28;20120;-72
2022/06/30 06:47:35;;;;;;;0.52;0.47;;;23.00;99.90;;;;;;5031413;28;20041;-71
2022/06/30 06:50:01;;;;;;;0.43;0.43;;;23.10;99.90;;;;;;5030661;28;20083;-71
2022/06/30 06:52:27;;;;;;;0.15;0.15;;;23.30;99.90;;;;;;5030820;28;20045;-71
2022/06/30 06:54:53;;;;;;;0.08;0.08;;;23.30;99.90;;;;;;5031363;28;20469;-71
2022/06/30 06:57:18;;;;;;;8.25;1.55;;;23.40;99.90;;;;;;5029948;28;20060;-71
2022/06/30 06:59:44;;;;;;;0.32;0.32;;;23.40;99.90;;;;;;5031100;28;20514;-72
2022/06/30 07:02:10;;;;;;;0.85;0.80;;;23.40;99.90;;;;;;5030543;28;20106;-72
2022/06/30 07:04:36;;;;;;;0.00;0.00;;;23.50;99.90;;;;;;5031258;28;20029;-72
2022/06/30 07:07:02;;;;;;;1.75;0.60;;;23.60;99.90;;;;;;5030958;28;20033;-72
2022/06/30 07:09:28;;;;;;;0.20;0.20;;;23.60;99.90;;;;;;5029742;28;20067;-72
2022/06/30 07:11:54;;;;;;;0.20;0.20;;;23.70;99.90;;;;;;5030775;28;20128;-72
2022/06/30 07:14:20;;;;;;;1.13;0.60;;;23.90;99.90;;;;;;5030547;28;20124;-73
2022/06/30 07:16:47;;;;;;;0.10;0.10;;;24.00;99.90;;;;;;5030790;28;20056;-72
2022/06/30 07:19:13;;;;;;;0.38;0.28;;;24.00;99.90;;;;;;5030584;28;20029;-73
2022/06/30 07:21:39;;;;;;;0.25;0.25;;;24.00;99.90;;;;;;5029652;28;20079;-72
2022/06/30 07:24:05;;;;;;;0.30;0.25;;;24.00;99.90;;;;;;5034410;28;20116;-71
2022/06/30 07:26:30;;;;;;;0.38;0.38;;;24.10;99.90;;;;;;5037380;28;20481;-71
2022/06/30 07:28:56;;;;;;;0.30;0.30;;;24.20;99.90;;;;;;5037055;28;20037;-71
2022/06/30 07:31:23;;;;;;;0.30;0.30;;;24.20;99.90;;;;;;5037350;28;20036;-71
2022/06/30 07:33:49;;;;;;;1.13;0.88;;;24.30;99.90;;;;;;5037458;28;20434;-70
2022/06/30 07:36:15;;;;;;;0.25;0.25;;;24.50;99.90;;;;;;5036065;28;20044;-71
2022/06/30 07:38:43;;;;;;;0.00;0.00;;;24.60;99.90;;;;;;5035817;28;20029;-71
2022/06/30 07:41:08;;;;;;;0.10;0.10;;;24.60;99.90;;;;;;5017433;28;20466;-71
2022/06/30 07:43:34;;;;;;;2.90;0.30;;;24.60;99.90;;;;;;5032170;28;20040;-71
2022/06/30 07:46:00;;;;;;;0.20;0.20;;;24.50;99.90;;;;;;5016123;28;20030;-71
2022/06/30 07:48:26;;;;;;;1.05;0.50;;;24.60;99.90;;;;;;5016502;28;20030;-70
2022/06/30 07:50:52;;;;;;;1.25;1.15;;;24.70;99.90;;;;;;5017434;28;20125;-71
2022/06/30 07:53:18;;;;;;;1.15;0.85;;;24.80;99.90;;;;;;5017367;28;20369;-71
2022/06/30 07:55:44;;;;;;;0.43;0.43;;;24.90;99.90;;;;;;5017440;28;20034;-71
2022/06/30 07:58:10;;;;;;;0.13;0.10;;;24.90;99.90;;;;;;5016881;28;20052;-71
2022/06/30 08:00:36;;;;;;;0.25;0.25;;;25.10;99.90;;;;;;5017489;28;20029;-70
2022/06/30 08:03:02;;;;;;;0.30;0.30;;;25.20;99.90;;;;;;5017153;28;20462;-71
2022/06/30 08:05:28;;;;;;;1.75;1.00;;;25.30;99.90;;;;;;5017470;28;20033;-71
2022/06/30 08:07:54;;;;;;;0.70;0.50;;;25.40;99.90;;;;;;5017472;28;20569;-71
2022/06/30 08:10:20;;;;;;;0.65;0.65;;;25.30;99.90;;;;;;5031138;28;20026;-71
2022/06/30 08:12:46;;;;;;;0.30;0.30;;;25.50;99.90;;;;;;5036511;28;20021;-71
2022/06/30 08:15:12;;;;;;;0.60;0.55;;;25.50;99.90;;;;;;5035628;28;20052;-71
2022/06/30 08:17:38;;;;;;;1.60;1.02;;;25.50;99.90;;;;;;5037084;28;20037;-71
2022/06/30 08:20:05;;;;;;;0.35;0.35;;;25.60;99.90;;;;;;5037035;28;20029;-71
2022/06/30 08:22:31;;;;;;;0.10;0.10;;;25.70;99.90;;;;;;5036711;28;20116;-71
2022/06/30 08:24:58;;;;;;;1.42;0.93;;;25.60;99.90;;;;;;5035745;28;20109;-71
2022/06/30 08:27:24;;;;;;;0.93;0.90;;;25.70;99.90;;;;;;5037068;28;20385;-71
2022/06/30 08:29:50;;;;;;;0.10;0.10;;;25.80;99.90;;;;;;5035590;28;20036;-72
2022/06/30 08:32:16;;;;;;;0.30;0.30;;;25.90;99.90;;;;;;5036345;28;20033;-71
2022/06/30 08:34:42;;;;;;;2.08;0.73;;;26.00;99.90;;;;;;5034462;28;20029;-71
2022/06/30 08:37:08;;;;;;;1.15;0.88;;;26.20;99.90;;;;;;5033666;28;20026;-71
2022/06/30 08:42:22;;;;;;;1.45;1.20;;;26.30;99.90;;;;;;5033119;28;20029;-71
2022/06/30 08:45:33;;;;;;;0.38;0.38;;;26.50;99.90;;;;;;5033608;28;20109;-71
2022/06/30 08:47:35;;;;;;;0.55;0.25;;;26.60;99.40;;;;;;5032636;28;20103;-70
2022/06/30 08:50:02;;;;;;;1.90;0.77;;;26.60;98.70;;;;;;5033462;28;20573;-71
2022/06/30 08:52:31;;;;;;;0.40;0.32;;;26.70;98.80;;;;;;5031548;28;20087;-70
2022/06/30 08:54:58;;;;;;;2.13;0.35;;;26.90;98.30;;;;;;5032140;28;20049;-71
2022/06/30 08:57:27;;;;;;;0.30;0.22;;;26.90;98.30;;;;;;5033395;28;20068;-71
2022/06/30 08:59:53;;;;;;;0.20;0.20;;;26.90;98.60;;;;;;5031728;28;20033;-70
2022/06/30 09:02:19;;;;;;;2.00;0.52;;;27.00;98.20;;;;;;5033159;28;20022;-71
2022/06/30 09:04:45;;;;;;;0.63;0.47;;;27.10;98.40;;;;;;5031977;28;20035;-71
2022/06/30 09:07:11;;;;;;;0.15;0.15;;;27.20;97.00;;;;;;5033244;28;20117;-70
2022/06/30 09:09:38;;;;;;;0.10;0.10;;;27.20;96.50;;;;;;5032331;28;20025;-71
2022/06/30 09:12:15;;;;;;;0.32;0.25;;;27.20;96.60;;;;;;5032577;28;20525;-71
2022/06/30 09:14:46;;;;;;;0.93;0.40;;;27.40;96.40;;;;;;5033304;28;20053;-71
2022/06/30 09:17:18;;;;;;;0.30;0.30;;;27.30;96.40;;;;;;5032705;28;20128;-71
2022/06/30 09:20:03;;;;;;;1.02;0.82;;;27.50;96.30;;;;;;5015318;28;20493;-71
2022/06/30 09:22:36;;;;;;;1.00;0.85;;;27.50;95.90;;;;;;5031612;28;20030;-71
2022/06/30 09:25:12;;;;;;;0.13;0.13;;;27.70;96.10;;;;;;5032828;28;20075;-71
2022/06/30 09:27:42;;;;;;;0.28;0.22;;;27.90;94.90;;;;;;5031521;28;20063;-71
2022/06/30 09:30:20;;;;;;;0.63;0.30;;;27.90;94.20;;;;;;5033083;28;20051;-71
2022/06/30 09:32:56;;;;;;;0.10;0.10;;;28.10;94.80;;;;;;5031211;28;20503;-71
2022/06/30 09:35:25;;;;;;;0.20;0.20;;;28.20;93.80;;;;;;5032651;28;20030;-71
2022/06/30 09:38:00;;;;;;;0.20;0.20;;;28.30;93.60;;;;;;5031622;28;20029;-71
2022/06/30 09:40:33;;;;;;;0.98;0.80;;;28.10;93.30;;;;;;5043870;28;20117;-71
2022/06/30 09:42:59;;;;;;;0.20;0.20;;;28.10;93.70;;;;;;5032579;28;20432;-71
2022/06/30 09:45:40;;;;;;;0.38;0.38;;;28.00;93.80;;;;;;5032136;28;20029;-71
2022/06/30 09:48:10;;;;;;;0.15;0.15;;;28.00;93.40;;;;;;5032534;28;20112;-72
2022/06/30 09:50:37;;;;;;;0.10;0.05;;;28.30;93.00;;;;;;5046588;22;20116;-74
2022/06/30 09:53:14;;;;;;;0.22;0.22;;;28.50;91.90;;;;;;5021676;28;20673;-76
2022/06/30 09:55:45;;;;;;;0.00;0.00;;;28.40;90.90;;;;;;5011136;28;20104;-76
2022/06/30 09:58:33;;;;;;;0.65;0.43;;;28.50;90.70;;;;;;5012358;28;20330;-76
2022/06/30 10:00:59;;;;;;;0.10;0.10;;;28.60;91.30;;;;;;5010948;28;20088;-75
2022/06/30 10:03:25;;;;;;;0.10;0.10;;;28.80;91.10;;;;;;5013619;28;20379;-75
2022/06/30 10:06:11;;;;;;;0.45;0.45;;;28.90;90.60;;;;;;5032176;28;20025;-69
2022/06/30 10:08:37;;;;;;;0.68;0.28;;;29.20;90.20;;;;;;5030771;28;20040;-69
2022/06/30 10:11:05;;;;;;;0.55;0.40;;;29.40;90.30;;;;;;5012363;28;20034;-68
2022/06/30 10:13:38;;;;;;;3.90;1.80;;;29.60;90.70;;;;;;5010646;28;20370;-69
2022/06/30 10:16:06;;;;;;;0.00;0.00;;;29.70;87.00;;;;;;5021498;28;20033;-69
2022/06/30 10:18:39;;;;;;;0.00;0.00;;;29.30;88.20;;;;;;5030378;28;20472;-69
2022/06/30 10:21:08;;;;;;;1.25;0.70;;;29.20;88.60;;;;;;5030705;28;20508;-69
2022/06/30 10:23:35;;;;;;;0.77;0.55;;;29.50;87.30;;;;;;5031393;28;20037;-69
2022/06/30 10:26:02;;;;;;;0.63;0.43;;;29.60;85.70;;;;;;5031618;28;20060;-69
2022/06/30 10:28:29;;;;;;;0.65;0.52;;;29.50;85.10;;;;;;5028645;28;20029;-70
2022/06/30 10:31:08;;;;;;;0.43;0.40;;;29.60;84.90;;;;;;5010432;28;20041;-70
2022/06/30 10:33:47;;;;;;;0.10;0.10;;;29.30;84.90;;;;;;5010380;28;20034;-70
2022/06/30 10:36:39;;;;;;;0.52;0.47;;;29.40;85.00;;;;;;5010650;28;20026;-69
2022/06/30 10:39:20;;;;;;;0.00;0.00;;;28.90;84.90;;;;;;5016703;28;20036;-69
2022/06/30 10:41:47;;;;;;;0.45;0.30;;;29.00;84.70;;;;;;5030486;28;20300;-71
2022/06/30 10:44:24;;;;;;;0.15;0.15;;;29.40;84.70;;;;;;5029917;28;20428;-69
2022/06/30 10:46:57;;;;;;;0.05;0.00;;;29.60;85.20;;;;;;5031084;28;20026;-69
2022/06/30 10:49:28;;;;;;;5.18;1.52;;;30.00;84.20;;;;;;5031495;28;20043;-70
2022/06/30 10:52:17;;;;;;;;;;;30.20;84.10;;;;;;5030459;28;20029;-69
2022/06/30 10:54:45;;;;;;;3.00;0.88;;;30.00;81.60;;;;;;5030122;28;20292;-70
2022/06/30 10:57:16;;;;;;;0.25;0.15;;;30.10;82.40;;;;;;5029523;28;20030;-68
2022/06/30 10:59:41;;;;;;;;;;;30.40;79.90;;;;;;5031170;28;20029;-70
2022/06/30 11:02:07;;;;;;;0.45;0.30;;;30.40;79.20;;;;;;5031050;28;20004;-70
2022/06/30 11:04:44;;;;;;;0.77;0.73;;;30.30;80.90;;;;;;5030774;28;20068;-70
2022/06/30 11:07:12;;;;;;;0.30;0.30;;;30.40;81.50;;;;;;5031267;28;20029;-70
2022/06/30 11:09:44;;;;;;;0.00;0.00;;;30.50;78.10;;;;;;5030701;28;20021;-70
2022/06/30 11:12:41;;;;;;;27.55;0.55;;;30.70;80.80;;;;;;5030746;28;20033;-70
2022/06/30 11:15:09;;;;;;;0.00;0.00;;;31.00;77.70;;;;;;5029904;28;20083;-69
2022/06/30 11:17:39;;;;;;;0.10;0.05;;;31.20;79.10;;;;;;5029352;28;20060;-70
2022/06/30 11:20:12;;;;;;;1.25;0.80;;;31.40;76.50;;;;;;5029721;28;20025;-70
2022/06/30 11:22:38;;;;;;;0.82;0.73;;;31.30;76.40;;;;;;5030668;28;20029;-70
2022/06/30 11:25:08;;;;;;;0.20;0.20;;;31.00;76.70;;;;;;5029654;28;20034;-70
2022/06/30 11:27:37;;;;;;;0.47;0.30;;;31.50;75.80;;;;;;5030670;28;20520;-70
2022/06/30 11:30:10;;;;;;;0.03;0.03;;;32.00;74.80;;;;;;5013536;28;20041;-68
2022/06/30 11:32:37;;;;;;;0.40;0.22;;;32.10;74.20;;;;;;5029101;28;20032;-69
2022/06/30 11:35:04;;;;;;;4.20;0.57;;;31.80;72.10;;;;;;5029548;28;20037;-69
2022/06/30 11:37:35;;;;;;;0.65;0.45;;;32.10;72.70;;;;;;5029723;28;20087;-69
2022/06/30 11:40:05;;;;;;;1.23;1.00;;;32.00;71.90;;;;;;5029191;28;20029;-68
2022/06/30 11:42:32;;;;;;;4.13;2.13;;;32.00;72.10;;;;;;5030633;28;20068;-68
2022/06/30 11:44:58;;;;;;;0.13;0.10;;;31.60;71.60;;;;;;5029459;28;20049;-69
2022/06/30 11:47:28;;;;;;;7.32;4.38;;;31.50;73.90;;;;;;5029126;28;20514;-68
2022/06/30 11:49:59;;;;;;;0.50;0.30;;;31.40;74.20;;;;;;5030490;28;20056;-69
2022/06/30 11:52:37;;;;;;;0.00;0.00;;;31.00;73.10;;;;;;5028970;28;20111;-69
2022/06/30 11:55:12;;;;;;;0.00;0.00;;;31.20;74.70;;;;;;5029544;28;20053;-69
2022/06/30 11:57:44;;;;;;;0.13;0.13;;;31.50;73.60;;;;;;5030609;28;20057;-69
2022/06/30 12:00:14;;;;;;;0.17;0.17;;;31.90;73.70;;;;;;5029454;28;20136;-68
2022/06/30 12:02:42;;;;;;;0.25;0.20;;;32.10;72.20;;;;;;5028990;28;20098;-68
2022/06/30 12:05:11;;;;;;;0.15;0.15;;;32.20;72.30;;;;;;5029332;28;20037;-68
2022/06/30 12:07:39;;;;;;;0.00;0.00;;;32.20;74.00;;;;;;5030368;28;20163;-69
2022/06/30 12:10:08;;;;;;;0.20;0.17;;;32.70;72.50;;;;;;5031789;28;20030;-69
2022/06/30 12:12:37;;;;;;;0.00;0.00;;;32.30;69.80;;;;;;5032467;28;20519;-69
2022/06/30 12:15:14;;;;;;;0.37;0.20;;;32.40;71.00;;;;;;5033179;28;20037;-69
2022/06/30 12:17:53;;;;;;;0.20;0.20;;;32.50;70.20;;;;;;5034013;28;20383;-69
2022/06/30 12:20:21;;;;;;;0.22;0.22;;;32.60;69.80;;;;;;5032886;28;20037;-69
2022/06/30 12:22:50;;;;;;;0.52;0.30;;;32.20;69.10;;;;;;5032632;28;20393;-69
2022/06/30 12:25:17;;;;;;;0.03;0.03;;;32.10;72.50;;;;;;5034015;28;20374;-69
2022/06/30 12:27:56;;;;;;;1.02;0.38;;;32.10;69.70;;;;;;5032834;28;20498;-69
2022/06/30 12:30:35;;;;;;;0.33;0.30;;;32.00;70.30;;;;;;5033909;28;20021;-69
2022/06/30 12:33:04;;;;;;;0.17;0.10;;;32.10;71.00;;;;;;5032673;28;20033;-69
2022/06/30 12:35:34;;;;;;;5.75;0.47;;;32.70;69.90;;;;;;5032218;28;20128;-69
2022/06/30 12:38:32;;;;;;;0.00;0.00;;;33.00;68.10;;;;;;5033844;28;20045;-69
2022/06/30 12:41:16;;;;;;;1.02;0.20;;;33.50;68.90;;;;;;5012350;28;20494;-69
2022/06/30 12:43:47;;;;;;;0.20;0.20;;;33.50;70.50;;;;;;5012546;28;20029;-69
2022/06/30 12:46:16;;;;;;;0.43;0.43;;;33.30;68.80;;;;;;5013797;28;20045;-69
2022/06/30 12:48:54;;;;;;;0.55;0.52;;;33.30;69.00;;;;;;5012722;28;20026;-69
2022/06/30 12:51:32;;;;;;;1.35;0.70;;;33.70;68.40;;;;;;5012179;28;20034;-69
2022/06/30 12:54:05;;;;;;;0.00;0.00;;;33.70;67.60;;;;;;5013368;28;20030;-69
2022/06/30 12:56:32;;;;;;;0.93;0.73;;;33.20;67.30;;;;;;5012335;28;20548;-69
2022/06/30 12:59:13;;;;;;;3.83;0.40;;;33.20;70.10;;;;;;5013419;28;20034;-69
2022/06/30 13:01:53;;;;;;;0.90;0.57;;;32.40;69.80;;;;;;5013460;28;20030;-70
2022/06/30 13:04:22;;;;;;;0.00;0.00;;;32.10;71.60;;;;;;5011910;28;20104;-70